Terminal Aerodrome Forecast
Issued by NWS Louisville, KY

Home | Current Version | Previous Version | Text Only | Print | Product List | Glossary On
Versions: 1 2 3 4 5 6 7 8 9 10 11 12 13 14 15 16 17
000
FTUS43 KLMK 272300
TAFSDF
TAF
KSDF 272325Z 2800/2906 19012G18KT P6SM SCT250
     FM280300 19009KT P6SM BKN250 WS012/21039KT
     FM281300 21013G21KT P6SM BKN040
     FM281600 24012KT P6SM SHRA BKN035
     FM282200 29008KT P6SM BKN060=

USA.gov is the U.S. government's official web portal to all federal, state and local government web resources and services.